sensor_id;sensor_type;location;lat;lon;timestamp;pressure;altitude;pressure_sealevel;temperature;humidity
18201;BME280;9226;47.858;9.594;2024-01-11T00:00:20;95932.28;;;-3.85;82.93
18201;BME280;9226;47.858;9.594;2024-01-11T00:02:46;95942.00;;;-3.97;83.07
18201;BME280;9226;47.858;9.594;2024-01-11T00:05:11;95938.59;;;-4.01;82.82
18201;BME280;9226;47.858;9.594;2024-01-11T00:07:37;95935.19;;;-4.03;82.94
18201;BME280;9226;47.858;9.594;2024-01-11T00:10:03;95936.09;;;-4.07;83.08
18201;BME280;9226;47.858;9.594;2024-01-11T00:12:28;95939.56;;;-4.08;82.96
18201;BME280;9226;47.858;9.594;2024-01-11T00:14:54;95940.44;;;-4.08;82.97
18201;BME280;9226;47.858;9.594;2024-01-11T00:17:19;95940.44;;;-4.08;83.32
18201;BME280;9226;47.858;9.594;2024-01-11T00:19:45;95943.06;;;-4.09;83.64
18201;BME280;9226;47.858;9.594;2024-01-11T00:22:10;95941.44;;;-4.16;84.10
18201;BME280;9226;47.858;9.594;2024-01-11T00:24:36;95945.69;;;-4.12;84.35
18201;BME280;9226;47.858;9.594;2024-01-11T00:27:01;95943.19;;;-4.19;84.89
18201;BME280;9226;47.858;9.594;2024-01-11T00:29:26;95946.44;;;-4.06;84.73
18201;BME280;9226;47.858;9.594;2024-01-11T00:31:53;95944.75;;;-4.08;84.88
18201;BME280;9226;47.858;9.594;2024-01-11T00:34:19;95937.56;;;-3.92;84.45
18201;BME280;9226;47.858;9.594;2024-01-11T00:36:44;95945.56;;;-4.03;84.61
18201;BME280;9226;47.858;9.594;2024-01-11T00:39:09;95948.72;;;-3.86;84.27
18201;BME280;9226;47.858;9.594;2024-01-11T00:41:37;95946.13;;;-3.86;84.27
18201;BME280;9226;47.858;9.594;2024-01-11T00:44:02;95951.28;;;-3.83;84.05
18201;BME280;9226;47.858;9.594;2024-01-11T00:46:28;95945.19;;;-3.82;84.09
18201;BME280;9226;47.858;9.594;2024-01-11T00:48:53;95946.94;;;-3.82;84.43
18201;BME280;9226;47.858;9.594;2024-01-11T00:51:19;95951.31;;;-3.86;84.44
18201;BME280;9226;47.858;9.594;2024-01-11T00:53:44;95941.75;;;-3.82;84.26
18201;BME280;9226;47.858;9.594;2024-01-11T00:56:19;95948.63;;;-3.79;84.68
18201;BME280;9226;47.858;9.594;2024-01-11T00:58:45;95947.63;;;-3.72;84.26
18201;BME280;9226;47.858;9.594;2024-01-11T01:01:11;95951.00;;;-3.69;84.35
18201;BME280;9226;47.858;9.594;2024-01-11T01:03:36;95954.72;;;-3.84;84.92
18201;BME280;9226;47.858;9.594;2024-01-11T01:06:02;95950.97;;;-3.67;84.48
18201;BME280;9226;47.858;9.594;2024-01-11T01:08:28;95952.00;;;-3.74;84.72
18201;BME280;9226;47.858;9.594;2024-01-11T01:10:54;95957.88;;;-3.65;84.60
18201;BME280;9226;47.858;9.594;2024-01-11T01:13:19;95960.34;;;-3.58;84.32
18201;BME280;9226;47.858;9.594;2024-01-11T01:15:45;95951.66;;;-3.56;84.08
18201;BME280;9226;47.858;9.594;2024-01-11T01:18:10;95950.66;;;-3.49;83.90
18201;BME280;9226;47.858;9.594;2024-01-11T01:20:36;95952.47;;;-3.52;83.95
18201;BME280;9226;47.858;9.594;2024-01-11T01:23:02;95961.03;;;-3.47;83.82
18201;BME280;9226;47.858;9.594;2024-01-11T01:25:27;95948.22;;;-3.58;83.71
18201;BME280;9226;47.858;9.594;2024-01-11T01:27:53;95949.75;;;-3.44;83.55
18201;BME280;9226;47.858;9.594;2024-01-11T01:30:18;95951.72;;;-3.59;83.71
18201;BME280;9226;47.858;9.594;2024-01-11T01:32:43;95949.13;;;-3.59;83.73
18201;BME280;9226;47.858;9.594;2024-01-11T01:35:09;95952.56;;;-3.57;83.58
18201;BME280;9226;47.858;9.594;2024-01-11T01:37:34;95960.34;;;-3.58;83.89
18201;BME280;9226;47.858;9.594;2024-01-11T01:40:00;95958.69;;;-3.63;83.85
18201;BME280;9226;47.858;9.594;2024-01-11T01:42:25;95959.56;;;-3.62;83.91
18201;BME280;9226;47.858;9.594;2024-01-11T01:44:51;95963.19;;;-3.72;84.24
18201;BME280;9226;47.858;9.594;2024-01-11T01:47:17;95970.19;;;-3.77;84.04
18201;BME280;9226;47.858;9.594;2024-01-11T01:49:44;95964.00;;;-3.70;84.11
18201;BME280;9226;47.858;9.594;2024-01-11T01:52:10;95958.03;;;-3.74;84.00
18201;BME280;9226;47.858;9.594;2024-01-11T01:54:37;95967.50;;;-3.71;84.11
18201;BME280;9226;47.858;9.594;2024-01-11T01:57:02;95979.00;;;-3.89;84.15
18201;BME280;9226;47.858;9.594;2024-01-11T01:59:29;95974.63;;;-3.84;84.16
18201;BME280;9226;47.858;9.594;2024-01-11T02:01:55;95969.47;;;-3.86;84.49
18201;BME280;9226;47.858;9.594;2024-01-11T02:04:21;95977.19;;;-3.83;84.23
18201;BME280;9226;47.858;9.594;2024-01-11T02:06:48;95972.16;;;-3.92;84.54
18201;BME280;9226;47.858;9.594;2024-01-11T02:09:15;95972.88;;;-3.84;84.53
18201;BME280;9226;47.858;9.594;2024-01-11T02:11:44;95978.75;;;-3.72;83.95
18201;BME280;9226;47.858;9.594;2024-01-11T02:14:10;95981.28;;;-3.69;84.14
18201;BME280;9226;47.858;9.594;2024-01-11T02:16:36;95987.25;;;-3.64;83.85
18201;BME280;9226;47.858;9.594;2024-01-11T02:19:03;95982.97;;;-3.65;83.75
18201;BME280;9226;47.858;9.594;2024-01-11T02:21:30;95988.06;;;-3.60;83.63
18201;BME280;9226;47.858;9.594;2024-01-11T02:24:05;95987.88;;;-3.51;83.29
18201;BME280;9226;47.858;9.594;2024-01-11T02:26:31;95994.19;;;-3.65;83.51
18201;BME280;9226;47.858;9.594;2024-01-11T02:28:56;95990.56;;;-3.56;83.20
18201;BME280;9226;47.858;9.594;2024-01-11T02:31:22;95993.41;;;-3.70;83.42
18201;BME280;9226;47.858;9.594;2024-01-11T02:33:47;95993.31;;;-3.65;83.16
18201;BME280;9226;47.858;9.594;2024-01-11T02:36:13;95993.16;;;-3.57;83.00
18201;BME280;9226;47.858;9.594;2024-01-11T02:38:41;95995.03;;;-3.64;83.03
18201;BME280;9226;47.858;9.594;2024-01-11T02:41:08;95993.63;;;-3.84;83.59
18201;BME280;9226;47.858;9.594;2024-01-11T02:43:34;95990.00;;;-3.75;83.60
18201;BME280;9226;47.858;9.594;2024-01-11T02:46:03;95998.63;;;-3.73;83.34
18201;BME280;9226;47.858;9.594;2024-01-11T02:48:29;95990.84;;;-3.73;83.62
18201;BME280;9226;47.858;9.594;2024-01-11T02:50:58;95985.03;;;-3.87;83.83
18201;BME280;9226;47.858;9.594;2024-01-11T02:53:24;95994.41;;;-3.78;83.39
18201;BME280;9226;47.858;9.594;2024-01-11T02:55:50;95992.00;;;-3.92;83.80
18201;BME280;9226;47.858;9.594;2024-01-11T02:58:16;95992.22;;;-4.05;84.01
18201;BME280;9226;47.858;9.594;2024-01-11T03:00:41;95988.03;;;-4.13;84.06
18201;BME280;9226;47.858;9.594;2024-01-11T03:03:07;95979.16;;;-4.00;84.34
18201;BME280;9226;47.858;9.594;2024-01-11T03:05:32;95986.38;;;-4.21;84.88
18201;BME280;9226;47.858;9.594;2024-01-11T03:07:57;95988.28;;;-4.32;85.43
18201;BME280;9226;47.858;9.594;2024-01-11T03:10:23;95982.22;;;-4.29;85.41
18201;BME280;9226;47.858;9.594;2024-01-11T03:12:49;95986.50;;;-4.27;85.58
18201;BME280;9226;47.858;9.594;2024-01-11T03:15:15;95976.22;;;-4.33;86.10
18201;BME280;9226;47.858;9.594;2024-01-11T03:17:40;95974.25;;;-4.15;85.53
18201;BME280;9226;47.858;9.594;2024-01-11T03:20:06;95979.31;;;-4.08;85.59
18201;BME280;9226;47.858;9.594;2024-01-11T03:22:32;95975.72;;;-3.99;85.25
18201;BME280;9226;47.858;9.594;2024-01-11T03:24:58;95974.06;;;-4.03;84.65
18201;BME280;9226;47.858;9.594;2024-01-11T03:27:23;95980.91;;;-3.99;84.48
18201;BME280;9226;47.858;9.594;2024-01-11T03:29:48;95974.16;;;-4.09;84.07
18201;BME280;9226;47.858;9.594;2024-01-11T03:32:15;95976.88;;;-4.19;84.44
18201;BME280;9226;47.858;9.594;2024-01-11T03:34:40;95975.91;;;-4.11;84.57
18201;BME280;9226;47.858;9.594;2024-01-11T03:37:06;95976.75;;;-4.09;84.78
18201;BME280;9226;47.858;9.594;2024-01-11T03:39:32;95983.84;;;-4.22;84.57
18201;BME280;9226;47.858;9.594;2024-01-11T03:41:57;95980.41;;;-4.24;84.76
18201;BME280;9226;47.858;9.594;2024-01-11T03:44:22;95974.44;;;-4.28;84.67
18201;BME280;9226;47.858;9.594;2024-01-11T03:46:48;95978.84;;;-4.34;85.29
18201;BME280;9226;47.858;9.594;2024-01-11T03:49:13;95982.25;;;-4.32;85.06
18201;BME280;9226;47.858;9.594;2024-01-11T03:51:39;95981.59;;;-4.45;85.36
18201;BME280;9226;47.858;9.594;2024-01-11T03:54:05;95971.91;;;-4.34;85.58
18201;BME280;9226;47.858;9.594;2024-01-11T03:56:31;95986.63;;;-4.36;85.32
18201;BME280;9226;47.858;9.594;2024-01-11T03:58:56;95977.94;;;-4.33;84.71
18201;BME280;9226;47.858;9.594;2024-01-11T04:01:21;95975.19;;;-4.21;84.33
18201;BME280;9226;47.858;9.594;2024-01-11T04:03:47;95974.38;;;-4.25;84.19
18201;BME280;9226;47.858;9.594;2024-01-11T04:06:22;95978.84;;;-4.34;84.33
18201;BME280;9226;47.858;9.594;2024-01-11T04:08:48;95972.88;;;-4.41;84.49
18201;BME280;9226;47.858;9.594;2024-01-11T04:11:14;95972.28;;;-4.60;85.23
18201;BME280;9226;47.858;9.594;2024-01-11T04:13:39;95974.09;;;-4.68;85.47
18201;BME280;9226;47.858;9.594;2024-01-11T04:16:06;95971.44;;;-4.62;85.26
18201;BME280;9226;47.858;9.594;2024-01-11T04:18:32;95979.16;;;-4.58;85.22
18201;BME280;9226;47.858;9.594;2024-01-11T04:20:57;95977.66;;;-4.76;85.32
18201;BME280;9226;47.858;9.594;2024-01-11T04:23:23;95973.34;;;-4.75;85.60
18201;BME280;9226;47.858;9.594;2024-01-11T04:25:48;95975.06;;;-4.74;85.55
18201;BME280;9226;47.858;9.594;2024-01-11T04:28:15;95968.00;;;-4.63;84.82
18201;BME280;9226;47.858;9.594;2024-01-11T04:30:41;95965.50;;;-4.69;84.65
18201;BME280;9226;47.858;9.594;2024-01-11T04:33:06;95974.97;;;-4.66;84.44
18201;BME280;9226;47.858;9.594;2024-01-11T04:35:32;95971.56;;;-4.73;84.44
18201;BME280;9226;47.858;9.594;2024-01-11T04:37:57;95974.09;;;-4.68;83.82
18201;BME280;9226;47.858;9.594;2024-01-11T04:40:23;95980.38;;;-4.86;84.01
18201;BME280;9226;47.858;9.594;2024-01-11T04:42:48;95976.22;;;-5.01;84.36
18201;BME280;9226;47.858;9.594;2024-01-11T04:45:14;95979.63;;;-4.95;84.03
18201;BME280;9226;47.858;9.594;2024-01-11T04:47:39;95974.53;;;-5.02;83.63
18201;BME280;9226;47.858;9.594;2024-01-11T04:50:06;95967.75;;;-5.13;83.96
18201;BME280;9226;47.858;9.594;2024-01-11T04:52:32;95976.34;;;-5.07;83.82
18201;BME280;9226;47.858;9.594;2024-01-11T04:54:57;95976.34;;;-5.09;83.87
18201;BME280;9226;47.858;9.594;2024-01-11T04:57:23;95972.91;;;-5.13;83.80
18201;BME280;9226;47.858;9.594;2024-01-11T04:59:48;95971.31;;;-5.21;83.58
18201;BME280;9226;47.858;9.594;2024-01-11T05:02:13;95978.41;;;-5.39;83.83
18201;BME280;9226;47.858;9.594;2024-01-11T05:04:39;95968.97;;;-5.46;84.10
18201;BME280;9226;47.858;9.594;2024-01-11T05:07:04;95970.91;;;-5.67;84.37
18201;BME280;9226;47.858;9.594;2024-01-11T05:09:30;95975.22;;;-5.66;85.09
18201;BME280;9226;47.858;9.594;2024-01-11T05:11:55;95971.81;;;-5.72;84.77
18201;BME280;9226;47.858;9.594;2024-01-11T05:14:21;95968.38;;;-5.73;85.12
18201;BME280;9226;47.858;9.594;2024-01-11T05:16:46;95963.22;;;-5.74;84.97
18201;BME280;9226;47.858;9.594;2024-01-11T05:19:11;95968.53;;;-5.90;84.87
18201;BME280;9226;47.858;9.594;2024-01-11T05:21:37;95967.66;;;-5.90;85.33
18201;BME280;9226;47.858;9.594;2024-01-11T05:24:02;95967.66;;;-5.90;85.12
18201;BME280;9226;47.858;9.594;2024-01-11T05:26:28;95971.97;;;-5.88;85.39
18201;BME280;9226;47.858;9.594;2024-01-11T05:28:53;95975.38;;;-5.87;85.26
18201;BME280;9226;47.858;9.594;2024-01-11T05:31:19;95976.25;;;-5.88;85.14
18201;BME280;9226;47.858;9.594;2024-01-11T05:33:44;95984.88;;;-5.89;85.82
18201;BME280;9226;47.858;9.594;2024-01-11T05:36:11;95993.47;;;-5.87;85.40
18201;BME280;9226;47.858;9.594;2024-01-11T05:38:38;95994.50;;;-6.04;86.07
18201;BME280;9226;47.858;9.594;2024-01-11T05:41:04;95991.91;;;-6.01;85.92
18201;BME280;9226;47.858;9.594;2024-01-11T05:43:29;95991.94;;;-6.07;85.66
18201;BME280;9226;47.858;9.594;2024-01-11T05:45:55;95992.75;;;-5.98;85.57
18201;BME280;9226;47.858;9.594;2024-01-11T05:48:20;95996.09;;;-5.90;85.29
18201;BME280;9226;47.858;9.594;2024-01-11T05:50:46;95996.16;;;-5.98;85.07
18201;BME280;9226;47.858;9.594;2024-01-11T05:53:12;96006.41;;;-5.90;84.92
18201;BME280;9226;47.858;9.594;2024-01-11T05:55:37;96009.84;;;-5.88;84.53
18201;BME280;9226;47.858;9.594;2024-01-11T05:58:03;96003.00;;;-5.94;84.67
18201;BME280;9226;47.858;9.594;2024-01-11T06:00:29;96012.56;;;-6.01;84.85
18201;BME280;9226;47.858;9.594;2024-01-11T06:02:54;96008.25;;;-6.00;85.01
18201;BME280;9226;47.858;9.594;2024-01-11T06:05:20;96012.41;;;-5.85;84.52
18201;BME280;9226;47.858;9.594;2024-01-11T06:07:45;96012.41;;;-5.85;84.70
18201;BME280;9226;47.858;9.594;2024-01-11T06:10:10;96009.88;;;-5.90;84.56
18201;BME280;9226;47.858;9.594;2024-01-11T06:12:37;96011.53;;;-5.83;84.57
18201;BME280;9226;47.858;9.594;2024-01-11T06:15:03;96003.84;;;-5.92;84.67
18201;BME280;9226;47.858;9.594;2024-01-11T06:17:29;96004.72;;;-5.90;84.74
18201;BME280;9226;47.858;9.594;2024-01-11T06:19:54;96009.13;;;-6.06;85.38
18201;BME280;9226;47.858;9.594;2024-01-11T06:22:20;96014.19;;;-5.93;85.06
18201;BME280;9226;47.858;9.594;2024-01-11T06:24:46;96013.44;;;-6.02;85.30
18201;BME280;9226;47.858;9.594;2024-01-11T06:27:11;96014.94;;;-5.77;85.03
18201;BME280;9226;47.858;9.594;2024-01-11T06:29:36;96010.69;;;-5.83;85.11
18201;BME280;9226;47.858;9.594;2024-01-11T06:32:02;96005.44;;;-5.75;85.03
18201;BME280;9226;47.858;9.594;2024-01-11T06:34:27;96014.06;;;-5.78;85.00
18201;BME280;9226;47.858;9.594;2024-01-11T06:36:56;96024.31;;;-5.66;84.68
18201;BME280;9226;47.858;9.594;2024-01-11T06:39:22;96025.16;;;-5.62;84.46
18201;BME280;9226;47.858;9.594;2024-01-11T06:41:47;96031.16;;;-5.61;84.53
18201;BME280;9226;47.858;9.594;2024-01-11T06:44:13;96032.94;;;-5.68;84.73
18201;BME280;9226;47.858;9.594;2024-01-11T06:46:38;96047.47;;;-5.52;84.55
18201;BME280;9226;47.858;9.594;2024-01-11T06:49:07;96055.13;;;-5.44;84.57
18201;BME280;9226;47.858;9.594;2024-01-11T06:51:33;96062.88;;;-5.41;84.17
18201;BME280;9226;47.858;9.594;2024-01-11T06:53:59;96053.31;;;-5.31;84.25
18201;BME280;9226;47.858;9.594;2024-01-11T06:56:26;96062.84;;;-5.38;84.04
18201;BME280;9226;47.858;9.594;2024-01-11T06:58:52;96061.19;;;-5.45;84.02
18201;BME280;9226;47.858;9.594;2024-01-11T07:01:17;96060.44;;;-5.56;84.15
18201;BME280;9226;47.858;9.594;2024-01-11T07:03:44;96057.94;;;-5.66;85.09
18201;BME280;9226;47.858;9.594;2024-01-11T07:06:09;96057.88;;;-5.59;85.04
18201;BME280;9226;47.858;9.594;2024-01-11T07:08:35;96064.88;;;-5.72;85.25
18201;BME280;9226;47.858;9.594;2024-01-11T07:11:01;96059.69;;;-5.71;85.43
18201;BME280;9226;47.858;9.594;2024-01-11T07:13:28;96057.88;;;-5.59;85.05
18201;BME280;9226;47.858;9.594;2024-01-11T07:15:53;96056.88;;;-5.43;84.58
18201;BME280;9226;47.858;9.594;2024-01-11T07:18:21;96046.78;;;-5.71;84.94
18201;BME280;9226;47.858;9.594;2024-01-11T07:20:46;96053.56;;;-5.60;85.16
18201;BME280;9226;47.858;9.594;2024-01-11T07:23:13;96045.63;;;-5.37;84.89
18201;BME280;9226;47.858;9.594;2024-01-11T07:25:38;96060.22;;;-5.32;84.86
18201;BME280;9226;47.858;9.594;2024-01-11T07:28:04;96060.09;;;-5.18;84.32
18201;BME280;9226;47.858;9.594;2024-01-11T07:30:30;96056.75;;;-5.31;83.72
18201;BME280;9226;47.858;9.594;2024-01-11T07:32:55;96063.72;;;-5.36;84.10
18201;BME280;9226;47.858;9.594;2024-01-11T07:35:21;96069.84;;;-5.48;84.24
18201;BME280;9226;47.858;9.594;2024-01-11T07:37:46;96070.63;;;-5.41;84.44
18201;BME280;9226;47.858;9.594;2024-01-11T07:40:12;96073.13;;;-5.32;83.98
18201;BME280;9226;47.858;9.594;2024-01-11T07:42:39;96070.47;;;-5.22;84.17
18201;BME280;9226;47.858;9.594;2024-01-11T07:45:06;96073.13;;;-5.30;83.77
18201;BME280;9226;47.858;9.594;2024-01-11T07:47:32;96068.75;;;-5.23;83.48
18201;BME280;9226;47.858;9.594;2024-01-11T07:49:58;96077.28;;;-5.12;83.36
18201;BME280;9226;47.858;9.594;2024-01-11T07:52:23;96078.88;;;-5.00;83.44
18201;BME280;9226;47.858;9.594;2024-01-11T07:54:49;96076.16;;;-4.86;82.95
18201;BME280;9226;47.858;9.594;2024-01-11T07:57:14;96083.06;;;-4.85;82.88
18201;BME280;9226;47.858;9.594;2024-01-11T07:59:39;96092.47;;;-4.80;82.54
18201;BME280;9226;47.858;9.594;2024-01-11T08:02:06;96087.19;;;-4.69;82.27
18201;BME280;9226;47.858;9.594;2024-01-11T08:04:32;96096.66;;;-4.66;81.88
18201;BME280;9226;47.858;9.594;2024-01-11T08:06:57;96101.75;;;-4.60;82.03
18201;BME280;9226;47.858;9.594;2024-01-11T08:09:27;96100.94;;;-4.64;81.55
18201;BME280;9226;47.858;9.594;2024-01-11T08:11:53;96115.63;;;-4.64;81.61
18201;BME280;9226;47.858;9.594;2024-01-11T08:14:20;96115.56;;;-4.58;81.66
18201;BME280;9226;47.858;9.594;2024-01-11T08:16:45;96116.63;;;-4.81;81.06
18201;BME280;9226;47.858;9.594;2024-01-11T08:19:10;96127.06;;;-4.85;81.40
18201;BME280;9226;47.858;9.594;2024-01-11T08:21:39;96122.00;;;-4.98;81.24
18201;BME280;9226;47.858;9.594;2024-01-11T08:24:04;96123.88;;;-5.15;82.09
18201;BME280;9226;47.858;9.594;2024-01-11T08:26:30;96130.63;;;-4.99;82.02
18201;BME280;9226;47.858;9.594;2024-01-11T08:28:56;96124.53;;;-4.92;81.93
18201;BME280;9226;47.858;9.594;2024-01-11T08:31:21;96123.66;;;-4.94;82.51
18201;BME280;9226;47.858;9.594;2024-01-11T08:33:46;96123.56;;;-4.81;82.38
18201;BME280;9226;47.858;9.594;2024-01-11T08:36:12;96124.66;;;-5.05;82.37
18201;BME280;9226;47.858;9.594;2024-01-11T08:38:39;96117.03;;;-5.22;82.62
18201;BME280;9226;47.858;9.594;2024-01-11T08:41:04;96116.13;;;-5.17;82.69
18201;BME280;9226;47.858;9.594;2024-01-11T08:43:30;96111.91;;;-5.27;82.98
18201;BME280;9226;47.858;9.594;2024-01-11T08:45:55;96106.59;;;-5.10;82.88
18201;BME280;9226;47.858;9.594;2024-01-11T08:48:21;96114.31;;;-5.09;83.62
18201;BME280;9226;47.858;9.594;2024-01-11T08:50:49;96122.91;;;-5.03;83.12
18201;BME280;9226;47.858;9.594;2024-01-11T08:53:15;96127.13;;;-4.93;83.05
18201;BME280;9226;47.858;9.594;2024-01-11T08:55:43;96116.66;;;-4.82;82.58
18201;BME280;9226;47.858;9.594;2024-01-11T08:58:09;96110.50;;;-4.72;82.43
18201;BME280;9226;47.858;9.594;2024-01-11T09:00:36;96116.44;;;-4.61;82.17
18201;BME280;9226;47.858;9.594;2024-01-11T09:03:03;96120.91;;;-4.75;82.08
18201;BME280;9226;47.858;9.594;2024-01-11T09:05:28;96114.81;;;-4.68;81.93
18201;BME280;9226;47.858;9.594;2024-01-11T09:07:54;96121.66;;;-4.65;81.55
18201;BME280;9226;47.858;9.594;2024-01-11T09:10:19;96120.78;;;-4.64;81.93
18201;BME280;9226;47.858;9.594;2024-01-11T09:12:45;96126.75;;;-4.56;81.67
18201;BME280;9226;47.858;9.594;2024-01-11T09:15:12;96124.75;;;-4.32;81.75
18201;BME280;9226;47.858;9.594;2024-01-11T09:17:37;96132.53;;;-4.34;81.94
18201;BME280;9226;47.858;9.594;2024-01-11T09:20:04;96133.19;;;-4.16;81.34
18201;BME280;9226;47.858;9.594;2024-01-11T09:22:29;96126.19;;;-4.11;81.00
18201;BME280;9226;47.858;9.594;2024-01-11T09:24:55;96129.00;;;-4.27;81.03
18201;BME280;9226;47.858;9.594;2024-01-11T09:27:20;96135.25;;;-4.45;81.28
18201;BME280;9226;47.858;9.594;2024-01-11T09:29:46;96136.75;;;-4.25;81.80
18201;BME280;9226;47.858;9.594;2024-01-11T09:32:12;96145.44;;;-4.31;81.53
18201;BME280;9226;47.858;9.594;2024-01-11T09:34:37;96145.63;;;-4.46;81.98
18201;BME280;9226;47.858;9.594;2024-01-11T09:37:03;96144.53;;;-4.24;82.06
18201;BME280;9226;47.858;9.594;2024-01-11T09:39:29;96146.19;;;-4.21;81.41
18201;BME280;9226;47.858;9.594;2024-01-11T09:41:59;96150.34;;;-4.06;82.09
18201;BME280;9226;47.858;9.594;2024-01-11T09:44:29;96167.66;;;-4.10;81.68
18201;BME280;9226;47.858;9.594;2024-01-11T09:46:54;96174.59;;;-4.13;81.89
18201;BME280;9226;47.858;9.594;2024-01-11T09:49:22;96175.31;;;-4.01;82.50
18201;BME280;9226;47.858;9.594;2024-01-11T09:51:48;96183.69;;;-3.78;82.15
18201;BME280;9226;47.858;9.594;2024-01-11T09:54:14;96175.03;;;-3.77;81.40
18201;BME280;9226;47.858;9.594;2024-01-11T09:56:42;96171.56;;;-3.78;81.53
18201;BME280;9226;47.858;9.594;2024-01-11T09:59:08;96169.88;;;-3.79;80.89
18201;BME280;9226;47.858;9.594;2024-01-11T10:01:35;96162.72;;;-3.61;81.36
18201;BME280;9226;47.858;9.594;2024-01-11T10:04:01;96159.38;;;-3.70;80.88
18201;BME280;9226;47.858;9.594;2024-01-11T10:06:32;96163.50;;;-3.58;81.13
18201;BME280;9226;47.858;9.594;2024-01-11T10:08:58;96170.38;;;-3.54;81.01
18201;BME280;9226;47.858;9.594;2024-01-11T10:11:23;96162.50;;;-3.46;80.83
18201;BME280;9226;47.858;9.594;2024-01-11T10:13:56;96157.09;;;-3.34;80.47
18201;BME280;9226;47.858;9.594;2024-01-11T10:16:21;96164.72;;;-3.23;80.52
18201;BME280;9226;47.858;9.594;2024-01-11T10:18:47;96161.31;;;-3.27;80.17
18201;BME280;9226;47.858;9.594;2024-01-11T10:21:12;96155.84;;;-3.06;80.34
18201;BME280;9226;47.858;9.594;2024-01-11T10:23:38;96154.19;;;-3.14;79.90
18201;BME280;9226;47.858;9.594;2024-01-11T10:26:04;96152.09;;;-2.90;79.91
18201;BME280;9226;47.858;9.594;2024-01-11T10:28:29;96153.97;;;-2.98;79.32
18201;BME280;9226;47.858;9.594;2024-01-11T10:30:55;96151.56;;;-3.11;79.06
18201;BME280;9226;47.858;9.594;2024-01-11T10:33:21;96150.34;;;-2.91;79.33
18201;BME280;9226;47.858;9.594;2024-01-11T10:35:48;96144.13;;;-2.81;79.46
18201;BME280;9226;47.858;9.594;2024-01-11T10:38:15;96141.19;;;-3.12;78.82
18201;BME280;9226;47.858;9.594;2024-01-11T10:40:41;96138.78;;;-3.24;79.46
18201;BME280;9226;47.858;9.594;2024-01-11T10:43:09;96140.16;;;-3.00;79.40
18201;BME280;9226;47.858;9.594;2024-01-11T10:45:38;96136.44;;;-2.87;79.29
18201;BME280;9226;47.858;9.594;2024-01-11T10:48:13;96123.53;;;-2.90;79.09
18201;BME280;9226;47.858;9.594;2024-01-11T10:50:46;96127.00;;;-2.91;78.67
18201;BME280;9226;47.858;9.594;2024-01-11T10:53:29;96124.28;;;-2.85;78.87
18201;BME280;9226;47.858;9.594;2024-01-11T10:55:58;96111.38;;;-2.89;78.69
18201;BME280;9226;47.858;9.594;2024-01-11T10:58:25;96122.78;;;-2.97;78.68
18201;BME280;9226;47.858;9.594;2024-01-11T11:00:53;96114.19;;;-3.00;78.72
18201;BME280;9226;47.858;9.594;2024-01-11T11:03:19;96111.38;;;-2.89;78.64
18201;BME280;9226;47.858;9.594;2024-01-11T11:05:48;96101.75;;;-2.81;79.38
18201;BME280;9226;47.858;9.594;2024-01-11T11:08:16;96099.53;;;-2.56;78.73
18201;BME280;9226;47.858;9.594;2024-01-11T11:10:43;96097.16;;;-2.67;77.87
18201;BME280;9226;47.858;9.594;2024-01-11T11:13:11;96090.59;;;-2.43;77.90
18201;BME280;9226;47.858;9.594;2024-01-11T11:15:40;96089.44;;;-2.28;77.79
18201;BME280;9226;47.858;9.594;2024-01-11T11:18:07;96093.16;;;-2.40;77.46
18201;BME280;9226;47.858;9.594;2024-01-11T11:20:33;96091.19;;;-2.28;77.76
18201;BME280;9226;47.858;9.594;2024-01-11T11:23:05;96091.16;;;-2.27;77.38
18201;BME280;9226;47.858;9.594;2024-01-11T11:25:30;96089.25;;;-2.19;76.93
18201;BME280;9226;47.858;9.594;2024-01-11T11:27:56;96104.25;;;-2.31;77.44
18201;BME280;9226;47.858;9.594;2024-01-11T11:30:22;96087.69;;;-2.26;77.69
18201;BME280;9226;47.858;9.594;2024-01-11T11:32:47;96076.25;;;-2.19;77.31
18201;BME280;9226;47.858;9.594;2024-01-11T11:35:13;96080.06;;;-1.93;77.56
18201;BME280;9226;47.858;9.594;2024-01-11T11:37:39;96085.72;;;-1.74;77.18
18201;BME280;9226;47.858;9.594;2024-01-11T11:40:09;96078.44;;;-1.59;77.26
18201;BME280;9226;47.858;9.594;2024-01-11T11:42:35;96086.34;;;-1.64;76.19
18201;BME280;9226;47.858;9.594;2024-01-11T11:45:01;96090.22;;;-1.84;75.76
18201;BME280;9226;47.858;9.594;2024-01-11T11:47:34;96075.06;;;-1.65;76.35
18201;BME280;9226;47.858;9.594;2024-01-11T11:50:04;96083.09;;;-1.74;76.19
18201;BME280;9226;47.858;9.594;2024-01-11T11:52:32;96080.25;;;-1.65;76.19
18201;BME280;9226;47.858;9.594;2024-01-11T11:54:59;96068.88;;;-1.59;75.50
18201;BME280;9226;47.858;9.594;2024-01-11T11:57:26;96072.09;;;-1.49;76.21
18201;BME280;9226;47.858;9.594;2024-01-11T11:59:56;96069.44;;;-1.46;75.79
18201;BME280;9226;47.858;9.594;2024-01-11T12:02:25;96070.38;;;-1.49;76.24
18201;BME280;9226;47.858;9.594;2024-01-11T12:04:51;96067.72;;;-1.47;75.49
18201;BME280;9226;47.858;9.594;2024-01-11T12:07:16;96061.72;;;-1.51;76.30
18201;BME280;9226;47.858;9.594;2024-01-11T12:09:42;96047.66;;;-1.42;75.99
18201;BME280;9226;47.858;9.594;2024-01-11T12:12:08;96049.59;;;-1.16;76.04
18201;BME280;9226;47.858;9.594;2024-01-11T12:14:36;96053.00;;;-1.12;75.86
18201;BME280;9226;47.858;9.594;2024-01-11T12:17:02;96056.84;;;-1.29;75.78
18201;BME280;9226;47.858;9.594;2024-01-11T12:19:29;96056.28;;;-1.40;75.01
18201;BME280;9226;47.858;9.594;2024-01-11T12:21:54;96061.72;;;-1.51;75.98
18201;BME280;9226;47.858;9.594;2024-01-11T12:24:20;96058.63;;;-1.29;76.39
18201;BME280;9226;47.858;9.594;2024-01-11T12:26:47;96056.47;;;-1.13;76.23
18201;BME280;9226;47.858;9.594;2024-01-11T12:29:17;96063.50;;;-1.15;75.97
18201;BME280;9226;47.858;9.594;2024-01-11T12:31:42;96058.78;;;-1.01;75.89
18201;BME280;9226;47.858;9.594;2024-01-11T12:34:08;96060.69;;;-1.07;75.74
18201;BME280;9226;47.858;9.594;2024-01-11T12:36:33;96078.88;;;-1.06;75.83
18201;BME280;9226;47.858;9.594;2024-01-11T12:38:59;96083.19;;;-1.41;75.65
18201;BME280;9226;47.858;9.594;2024-01-11T12:41:24;96079.41;;;-1.28;76.43
18201;BME280;9226;47.858;9.594;2024-01-11T12:43:50;96081.03;;;-1.23;76.32
18201;BME280;9226;47.858;9.594;2024-01-11T12:46:16;96083.53;;;-1.19;76.16
18201;BME280;9226;47.858;9.594;2024-01-11T12:48:42;96076.09;;;-1.34;76.52
18201;BME280;9226;47.858;9.594;2024-01-11T12:51:07;96067.25;;;-1.27;76.62
18201;BME280;9226;47.858;9.594;2024-01-11T12:53:35;96068.91;;;-1.60;76.91
18201;BME280;9226;47.858;9.594;2024-01-11T12:56:07;96065.66;;;-1.70;77.71
18201;BME280;9226;47.858;9.594;2024-01-11T12:58:37;96072.69;;;-1.74;77.85
18201;BME280;9226;47.858;9.594;2024-01-11T13:01:06;96063.56;;;-1.93;78.38
18201;BME280;9226;47.858;9.594;2024-01-11T13:03:35;96065.84;;;-1.78;78.65